Time,TemperatureF,DewpointF,PressureIn,WindDirection,WindDirectionDegrees,WindSpeedMPH,WindSpeedGustMPH,Humidity,HourlyPrecipIn,Conditions,Clouds,dailyrainin,SoftwareType,DateUTC
2013-04-23 00:01:00,44.2,35.1,30.38,NE,45,1.1,1.1,70,0.00,FEW,,0.00,WeatherDisplay:10.37,2013-04-23 04:01:00,
2013-04-23 00:02:00,44.2,35.1,30.38,NW,315,1.1,1.1,70,0.00,FEW,,0.00,WeatherDisplay:10.37,2013-04-23 04:02:00,
2013-04-23 00:07:00,44.1,34.9,30.38,SE,135,1.1,0.0,70,0.00,FEW,,0.00,WeatherDisplay:10.37,2013-04-23 04:07:00,
2013-04-23 00:12:00,43.9,35.1,30.38,East,90,3.5,3.5,71,0.00,FEW,,0.00,WeatherDisplay:10.37,2013-04-23 04:12:00,
2013-04-23 00:17:00,43.9,35.1,30.38,ENE,68,1.1,0.0,71,0.00,FEW,,0.00,WeatherDisplay:10.37,2013-04-23 04:17:00,
2013-04-23 00:22:00,43.7,34.9,30.38,North,0,0.0,0.7,71,0.00,FEW,,0.00,WeatherDisplay:10.37,2013-04-23 04:22:00,
2013-04-23 00:27:00,43.7,34.9,30.38,North,0,2.3,2.3,71,0.00,FEW,,0.00,WeatherDisplay:10.37,2013-04-23 04:27:00,
2013-04-23 00:32:00,43.7,34.9,30.38,NE,45,1.1,1.1,71,0.00,FEW,,0.00,WeatherDisplay:10.37,2013-04-23 04:32:00,
2013-04-23 00:37:00,43.5,34.7,30.38,NE,45,1.1,0.0,71,0.00,FEW,,0.00,WeatherDisplay:10.37,2013-04-23 04:37:00,
2013-04-23 00:42:00,43.3,34.6,30.38,East,90,2.3,0.0,71,0.00,FEW,,0.00,WeatherDisplay:10.37,2013-04-23 04:42:00,
2013-04-23 00:47:00,43.2,34.7,30.37,NE,45,1.1,0.0,72,0.00,FEW,,0.00,WeatherDisplay:10.37,2013-04-23 04:47:00,
2013-04-23 00:52:00,43.2,34.7,30.37,NE,45,2.3,2.3,72,0.00,FEW,,0.00,WeatherDisplay:10.37,2013-04-23 04:52:00,
2013-04-23 00:57:00,43.2,34.7,30.37,North,0,2.3,2.3,72,0.00,FEW,,0.00,WeatherDisplay:10.37,2013-04-23 04:57:00,
2013-04-23 01:02:00,43.0,34.6,30.37,SE,135,1.1,1.1,72,0.00,CLR,,0.00,WeatherDisplay:10.37,2013-04-23 05:02:00,
2013-04-23 01:07:00,42.8,34.4,30.37,NW,315,2.3,0.0,72,0.00,CLR,,0.00,WeatherDisplay:10.37,2013-04-23 05:07:00,
2013-04-23 01:12:00,42.8,34.4,30.37,South,180,4.6,4.6,72,0.00,CLR,,0.00,WeatherDisplay:10.37,2013-04-23 05:12:00,
2013-04-23 01:17:00,42.8,34.4,30.37,SE,135,1.1,0.0,72,0.00,CLR,,0.00,WeatherDisplay:10.37,2013-04-23 05:17:00,
2013-04-23 01:22:00,42.6,34.6,30.37,South,180,3.1,3.1,73,0.00,CLR,,0.00,WeatherDisplay:10.37,2013-04-23 05:22:00,
2013-04-23 01:27:00,42.4,34.4,30.37,NE,45,3.5,3.5,73,0.00,CLR,,0.00,WeatherDisplay:10.37,2013-04-23 05:27:00,
2013-04-23 01:32:00,42.4,34.7,30.36,NE,45,2.3,2.3,74,0.00,CLR,,0.00,WeatherDisplay:10.37,2013-04-23 05:32:00,
2013-04-23 01:37:00,42.3,34.6,30.36,East,90,2.3,2.3,74,0.00,CLR,,0.00,WeatherDisplay:10.37,2013-04-23 05:37:00,
2013-04-23 01:42:00,42.1,34.4,30.36,SE,135,1.1,0.0,74,0.00,CLR,,0.00,WeatherDisplay:10.37,2013-04-23 05:42:00,
2013-04-23 01:47:00,41.9,34.2,30.35,East,90,1.1,0.0,74,0.00,CLR,,0.00,WeatherDisplay:10.37,2013-04-23 05:47:00,
2013-04-23 01:52:00,41.9,34.6,30.35,SE,135,2.3,2.3,75,0.00,CLR,,0.00,WeatherDisplay:10.37,2013-04-23 05:52:00,
2013-04-23 01:57:00,41.7,34.4,30.35,SE,135,3.5,3.5,75,0.00,CLR,,0.00,WeatherDisplay:10.37,2013-04-23 05:57:00,
2013-04-23 02:02:00,41.5,34.5,30.34,SE,135,5.8,0.0,76,0.00,CLR,,0.00,WeatherDisplay:10.37,2013-04-23 06:02:00,
2013-04-23 02:07:00,41.7,34.7,30.34,NE,45,4.6,0.0,76,0.00,CLR,,0.00,WeatherDisplay:10.37,2013-04-23 06:07:00,
2013-04-23 02:12:00,41.7,34.7,30.34,South,180,1.1,1.1,76,0.00,CLR,,0.00,WeatherDisplay:10.37,2013-04-23 06:12:00,
2013-04-23 02:17:00,41.9,34.9,30.34,SE,135,1.1,0.0,76,0.00,CLR,,0.00,WeatherDisplay:10.37,2013-04-23 06:17:00,
2013-04-23 02:22:00,41.9,34.9,30.34,NE,45,2.3,0.0,76,0.00,CLR,,0.00,WeatherDisplay:10.37,2013-04-23 06:22:00,
2013-04-23 02:27:00,41.7,34.7,30.34,East,90,1.1,0.0,76,0.00,CLR,,0.00,WeatherDisplay:10.37,2013-04-23 06:27:00,
2013-04-23 02:32:00,41.5,34.5,30.34,East,90,3.5,0.0,76,0.00,CLR,,0.00,WeatherDisplay:10.37,2013-04-23 06:32:00,
2013-04-23 02:37:00,41.5,34.5,30.34,East,90,3.5,3.5,76,0.00,CLR,,0.00,WeatherDisplay:10.37,2013-04-23 06:37:00,
2013-04-23 02:42:00,41.4,34.7,30.34,NE,45,0.0,0.0,77,0.00,CLR,,0.00,WeatherDisplay:10.37,2013-04-23 06:42:00,
2013-04-23 02:47:00,41.0,34.7,30.33,NE,45,2.3,0.0,78,0.00,CLR,,0.00,WeatherDisplay:10.37,2013-04-23 06:47:00,
2013-04-23 02:52:00,40.5,34.5,30.33,NW,315,0.0,0.0,79,0.00,CLR,,0.00,WeatherDisplay:10.37,2013-04-23 06:52:00,
2013-04-23 02:57:00,40.1,34.4,30.33,North,0,0.0,0.0,80,0.00,CLR,,0.00,WeatherDisplay:10.37,2013-04-23 06:57:00,
2013-04-23 03:02:00,39.9,34.2,30.33,North,0,0.0,0.0,80,0.00,CLR,,0.00,WeatherDisplay:10.37,2013-04-23 07:02:00,
2013-04-23 03:07:00,39.6,34.5,30.32,NE,45,1.6,0.0,82,0.00,CLR,,0.00,WeatherDisplay:10.37,2013-04-23 07:07:00,
2013-04-23 03:12:00,39.4,34.3,30.33,NE,45,1.1,0.0,82,0.00,CLR,,0.00,WeatherDisplay:10.37,2013-04-23 07:12:00,
2013-04-23 03:17:00,39.2,34.2,30.32,South,180,1.1,0.0,82,0.00,CLR,,0.00,WeatherDisplay:10.37,2013-04-23 07:17:00,
2013-04-23 03:22:00,39.0,33.7,30.32,South,180,0.0,0.0,81,0.00,CLR,,0.00,WeatherDisplay:10.37,2013-04-23 07:22:00,
2013-04-23 03:27:00,38.8,33.5,30.32,South,180,0.0,0.0,81,0.00,CLR,,0.00,WeatherDisplay:10.37,2013-04-23 07:27:00,
2013-04-23 03:32:00,38.8,33.8,30.32,North,0,0.0,0.0,82,0.00,CLR,,0.00,WeatherDisplay:10.37,2013-04-23 07:32:00,
2013-04-23 03:37:00,38.8,34.1,30.32,North,0,0.0,0.0,83,0.00,CLR,,0.00,WeatherDisplay:10.37,2013-04-23 07:37:00,
2013-04-23 03:42:00,38.7,33.9,30.32,NE,45,0.0,0.0,83,0.00,CLR,,0.00,WeatherDisplay:10.37,2013-04-23 07:42:00,
2013-04-23 03:47:00,38.7,34.2,30.32,NE,45,0.0,0.0,84,0.00,CLR,,0.00,WeatherDisplay:10.37,2013-04-23 07:47:00,
2013-04-23 03:52:00,38.5,34.1,30.32,NE,45,0.0,0.0,84,0.00,CLR,,0.00,WeatherDisplay:10.37,2013-04-23 07:52:00,
2013-04-23 03:57:00,38.3,33.9,30.32,NW,315,0.0,0.0,84,0.00,CLR,,0.00,WeatherDisplay:10.37,2013-04-23 07:57:00,
2013-04-23 04:02:00,38.1,34.0,30.32,NE,45,1.1,0.0,85,0.00,CLR,,0.00,WeatherDisplay:10.37,2013-04-23 08:02:00,
2013-04-23 04:07:00,38.1,34.3,30.32,NE,45,1.1,0.0,86,0.00,CLR,,0.00,WeatherDisplay:10.37,2013-04-23 08:07:00,
2013-04-23 04:12:00,38.1,34.0,30.32,East,90,1.1,0.0,85,0.00,CLR,,0.00,WeatherDisplay:10.37,2013-04-23 08:12:00,
2013-04-23 04:17:00,38.1,34.0,30.31,NW,315,0.0,0.0,85,0.00,CLR,,0.00,WeatherDisplay:10.37,2013-04-23 08:17:00,
2013-04-23 04:22:00,37.9,33.8,30.31,NE,45,1.1,0.0,85,0.00,CLR,,0.00,WeatherDisplay:10.37,2013-04-23 08:22:00,
2013-04-23 04:27:00,37.8,33.9,30.32,NE,45,0.0,0.0,86,0.00,CLR,,0.00,WeatherDisplay:10.37,2013-04-23 08:27:00,
2013-04-23 04:32:00,37.6,33.8,30.32,East,90,0.0,0.0,86,0.00,CLR,,0.00,WeatherDisplay:10.37,2013-04-23 08:32:00,
2013-04-23 04:37:00,37.4,33.6,30.32,East,90,0.0,0.0,86,0.00,CLR,,0.00,WeatherDisplay:10.37,2013-04-23 08:37:00,
2013-04-23 04:42:00,37.2,33.4,30.32,NW,315,0.0,0.0,86,0.00,CLR,,0.00,WeatherDisplay:10.37,2013-04-23 08:42:00,
2013-04-23 04:47:00,37.2,33.7,30.32,NW,315,0.0,0.0,87,0.00,CLR,,0.00,WeatherDisplay:10.37,2013-04-23 08:47:00,
2013-04-23 04:52:00,37.0,33.8,30.32,NW,315,0.0,0.0,88,0.00,CLR,,0.00,WeatherDisplay:10.37,2013-04-23 08:52:00,
2013-04-23 04:57:00,37.0,33.8,30.32,NW,315,0.0,0.0,88,0.00,CLR,,0.00,WeatherDisplay:10.37,2013-04-23 08:57:00,
2013-04-23 05:02:00,36.9,33.6,30.32,North,0,0.0,0.0,88,0.00,CLR,,0.00,WeatherDisplay:10.37,2013-04-23 09:02:00,
2013-04-23 05:07:00,36.9,33.6,30.31,NE,45,1.1,0.0,88,0.00,CLR,,0.00,WeatherDisplay:10.37,2013-04-23 09:07:00,
2013-04-23 05:12:00,36.9,33.6,30.31,NE,45,0.0,0.0,88,0.00,CLR,,0.00,WeatherDisplay:10.37,2013-04-23 09:12:00,
2013-04-23 05:17:00,36.7,33.5,30.31,NE,45,0.0,0.0,88,0.00,CLR,,0.00,WeatherDisplay:10.37,2013-04-23 09:17:00,
2013-04-23 05:22:00,36.5,33.3,30.31,North,0,0.0,0.0,88,0.00,CLR,,0.00,WeatherDisplay:10.37,2013-04-23 09:22:00,
2013-04-23 05:27:00,36.5,33.6,30.31,North,0,0.0,0.0,89,0.00,CLR,,0.00,WeatherDisplay:10.37,2013-04-23 09:27:00,
2013-04-23 05:32:00,36.3,33.4,30.31,North,0,0.0,0.0,89,0.00,CLR,,0.00,WeatherDisplay:10.37,2013-04-23 09:32:00,
2013-04-23 05:37:00,36.3,33.4,30.31,North,0,0.0,0.0,89,0.00,CLR,,0.00,WeatherDisplay:10.37,2013-04-23 09:37:00,
2013-04-23 05:42:00,36.7,33.7,30.31,SE,135,0.0,0.0,89,0.00,CLR,,0.00,WeatherDisplay:10.37,2013-04-23 09:42:00,
2013-04-23 05:47:00,36.7,33.7,30.30,North,0,0.0,0.0,89,0.00,CLR,,0.00,WeatherDisplay:10.37,2013-04-23 09:47:00,
2013-04-23 05:52:00,36.9,33.9,30.30,North,0,0.0,0.0,89,0.00,CLR,,0.00,WeatherDisplay:10.37,2013-04-23 09:52:00,
2013-04-23 05:57:00,36.9,33.9,30.30,North,0,0.0,0.0,89,0.00,CLR,,0.00,WeatherDisplay:10.37,2013-04-23 09:57:00,
2013-04-23 06:02:00,36.7,33.7,30.30,North,0,0.0,0.0,89,0.00,CLR,,0.00,WeatherDisplay:10.37,2013-04-23 10:02:00,
2013-04-23 06:07:00,36.5,33.6,30.30,North,0,0.0,0.0,89,0.00,CLR,,0.00,WeatherDisplay:10.37,2013-04-23 10:07:00,
2013-04-23 06:12:00,36.3,33.4,30.30,North,0,0.0,0.0,89,0.00,CLR,,0.00,WeatherDisplay:10.37,2013-04-23 10:12:00,
2013-04-23 06:17:00,36.1,33.2,30.30,North,0,0.0,0.0,89,0.00,CLR,,0.00,WeatherDisplay:10.37,2013-04-23 10:17:00,
2013-04-23 06:22:00,36.1,33.2,30.30,North,0,0.0,0.0,89,0.00,CLR,,0.00,WeatherDisplay:10.37,2013-04-23 10:22:00,
2013-04-23 06:27:00,36.3,33.7,30.31,North,0,0.0,0.0,90,0.00,CLR,,0.00,WeatherDisplay:10.37,2013-04-23 10:27:00,
2013-04-23 06:32:00,36.7,34.0,30.31,NW,315,0.0,0.0,90,0.00,CLR,,0.00,WeatherDisplay:10.37,2013-04-23 10:32:00,
2013-04-23 06:37:00,37.0,34.4,30.31,NW,315,1.1,1.1,90,0.00,CLR,,0.00,WeatherDisplay:10.37,2013-04-23 10:37:00,
2013-04-23 06:42:00,37.4,34.5,30.31,NW,315,1.1,0.0,89,0.00,CLR,,0.00,WeatherDisplay:10.37,2013-04-23 10:42:00,
2013-04-23 06:47:00,37.6,34.6,30.31,North,0,1.1,0.0,89,0.00,CLR,,0.00,WeatherDisplay:10.37,2013-04-23 10:47:00,
2013-04-23 06:52:00,37.8,34.5,30.31,NE,45,1.1,0.0,88,0.00,CLR,,0.00,WeatherDisplay:10.37,2013-04-23 10:52:00,
2013-04-23 06:57:00,38.1,34.9,30.31,North,0,1.1,1.1,88,0.00,CLR,,0.00,WeatherDisplay:10.37,2013-04-23 10:57:00,
2013-04-23 07:02:00,38.3,35.1,30.31,NE,45,3.5,3.5,88,0.00,BKN,,0.00,WeatherDisplay:10.37,2013-04-23 11:02:00,
2013-04-23 07:07:00,38.5,34.9,30.30,North,0,1.1,1.1,87,0.00,BKN,,0.00,WeatherDisplay:10.37,2013-04-23 11:07:00,
2013-04-23 07:12:00,38.8,35.3,30.31,North,0,1.1,0.0,87,0.00,BKN,,0.00,WeatherDisplay:10.37,2013-04-23 11:12:00,
2013-04-23 07:17:00,39.2,35.7,30.30,WSW,248,2.3,0.0,87,0.00,OVC,,0.00,WeatherDisplay:10.37,2013-04-23 11:17:00,
2013-04-23 07:22:00,39.4,35.5,30.31,North,0,1.1,0.0,86,0.00,OVC,,0.00,WeatherDisplay:10.37,2013-04-23 11:22:00,
2013-04-23 07:27:00,39.6,35.7,30.30,North,0,1.1,0.0,86,0.00,OVC,,0.00,WeatherDisplay:10.37,2013-04-23 11:27:00,
2013-04-23 07:32:00,39.9,35.8,30.30,NE,45,2.3,2.3,85,0.00,OVC,,0.00,WeatherDisplay:10.37,2013-04-23 11:32:00,
2013-04-23 07:37:00,39.9,35.8,30.30,NE,45,1.1,0.0,85,0.00,OVC,,0.00,WeatherDisplay:10.37,2013-04-23 11:37:00,
2013-04-23 07:42:00,40.3,36.1,30.30,SSE,158,2.3,2.3,85,0.00,OVC,,0.00,WeatherDisplay:10.37,2013-04-23 11:42:00,
2013-04-23 07:47:00,40.5,36.3,30.31,SE,135,1.1,1.6,85,0.00,OVC,,0.00,WeatherDisplay:10.37,2013-04-23 11:47:00,
2013-04-23 07:52:00,40.8,36.7,30.30,East,90,1.1,0.0,85,0.00,OVC,,0.00,WeatherDisplay:10.37,2013-04-23 11:52:00,
2013-04-23 07:57:00,41.0,36.8,30.30,NE,45,1.1,0.0,85,0.00,OVC,,0.00,WeatherDisplay:10.37,2013-04-23 11:57:00,
2013-04-23 08:02:00,41.2,36.7,30.31,West,270,2.3,2.3,84,0.00,OVC,,0.00,WeatherDisplay:10.37,2013-04-23 12:02:00,
2013-04-23 08:07:00,41.5,37.1,30.30,NW,315,0.0,0.0,84,0.00,OVC,,0.00,WeatherDisplay:10.37,2013-04-23 12:07:00,
2013-04-23 08:12:00,41.7,36.9,30.31,North,0,0.0,0.0,83,0.00,OVC,,0.00,WeatherDisplay:10.37,2013-04-23 12:12:00,
2013-04-23 08:17:00,42.1,37.3,30.30,SE,135,1.6,0.0,83,0.00,OVC,,0.00,WeatherDisplay:10.37,2013-04-23 12:17:00,
2013-04-23 08:22:00,42.4,37.3,30.30,South,180,2.3,0.0,82,0.00,OVC,,0.00,WeatherDisplay:10.37,2013-04-23 12:22:00,
2013-04-23 08:27:00,42.8,37.4,30.30,West,270,1.1,0.0,81,0.00,OVC,,0.00,WeatherDisplay:10.37,2013-04-23 12:27:00,
2013-04-23 08:32:00,43.2,37.7,30.30,North,0,1.6,1.6,81,0.00,OVC,,0.00,WeatherDisplay:10.37,2013-04-23 12:32:00,
2013-04-23 08:37:00,43.3,37.6,30.30,North,0,2.3,0.0,80,0.00,OVC,,0.00,WeatherDisplay:10.37,2013-04-23 12:37:00,
2013-04-23 08:42:00,43.7,37.9,30.30,North,0,1.1,1.1,80,0.00,OVC,,0.00,WeatherDisplay:10.37,2013-04-23 12:42:00,
2013-04-23 08:47:00,44.1,38.0,30.30,NW,315,2.2,2.2,79,0.00,OVC,,0.00,WeatherDisplay:10.37,2013-04-23 12:47:00,
2013-04-23 08:52:00,44.1,38.0,30.30,West,270,2.3,0.0,79,0.00,OVC,,0.00,WeatherDisplay:10.37,2013-04-23 12:52:00,
2013-04-23 08:57:00,44.1,38.3,30.30,NW,315,2.3,0.0,80,0.00,OVC,,0.00,WeatherDisplay:10.37,2013-04-23 12:57:00,
2013-04-23 09:02:00,44.2,38.5,30.29,North,0,1.1,0.0,80,0.00,OVC,,0.00,WeatherDisplay:10.37,2013-04-23 13:02:00,
2013-04-23 09:07:00,44.6,38.5,30.29,East,90,0.0,0.0,79,0.00,OVC,,0.00,WeatherDisplay:10.37,2013-04-23 13:07:00,
2013-04-23 09:12:00,45.5,39.4,30.29,South,180,1.1,0.0,79,0.00,OVC,,0.00,WeatherDisplay:10.37,2013-04-23 13:12:00,
2013-04-23 09:17:00,45.5,38.4,30.29,South,180,4.6,4.6,76,0.00,OVC,,0.00,WeatherDisplay:10.37,2013-04-23 13:17:00,
2013-04-23 09:22:00,45.7,38.9,30.29,NE,45,1.1,1.1,77,0.00,OVC,,0.00,WeatherDisplay:10.37,2013-04-23 13:22:00,
2013-04-23 09:27:00,46.0,39.2,30.29,NE,45,3.5,0.0,77,0.00,OVC,,0.00,WeatherDisplay:10.37,2013-04-23 13:27:00,
2013-04-23 09:32:00,46.2,39.1,30.28,SE,135,2.3,2.3,76,0.00,OVC,,0.00,WeatherDisplay:10.37,2013-04-23 13:32:00,
2013-04-23 09:37:00,46.2,39.1,30.28,SE,135,3.5,3.5,76,0.00,OVC,,0.00,WeatherDisplay:10.37,2013-04-23 13:37:00,
2013-04-23 09:42:00,46.4,38.9,30.28,SE,135,4.6,4.6,75,0.00,OVC,,0.00,WeatherDisplay:10.37,2013-04-23 13:42:00,
2013-04-23 09:47:00,46.8,39.6,30.27,NE,45,2.3,2.3,76,0.00,OVC,,0.00,WeatherDisplay:10.37,2013-04-23 13:47:00,
2013-04-23 09:52:00,47.5,39.9,30.27,NE,45,3.5,3.5,75,0.00,OVC,,0.00,WeatherDisplay:10.37,2013-04-23 13:52:00,
2013-04-23 09:57:00,47.8,40.0,30.27,South,180,3.5,3.5,74,0.00,OVC,,0.00,WeatherDisplay:10.37,2013-04-23 13:57:00,
2013-04-23 10:02:00,47.8,39.6,30.27,SE,135,3.5,0.0,73,0.00,OVC,,0.00,WeatherDisplay:10.37,2013-04-23 14:02:00,
2013-04-23 10:07:00,48.0,40.1,30.26,SE,135,3.5,3.5,74,0.00,OVC,,0.00,WeatherDisplay:10.37,2013-04-23 14:07:00,
2013-04-23 10:12:00,48.4,40.5,30.27,East,90,3.5,3.5,74,0.00,OVC,,0.00,WeatherDisplay:10.37,2013-04-23 14:12:00,
2013-04-23 10:17:00,48.6,40.3,30.26,NE,45,3.5,3.5,73,0.00,OVC,,0.00,WeatherDisplay:10.37,2013-04-23 14:17:00,
2013-04-23 10:22:00,48.7,40.5,30.26,SE,135,4.6,4.6,73,0.00,OVC,,0.00,WeatherDisplay:10.37,2013-04-23 14:22:00,
2013-04-23 10:27:00,48.6,40.3,30.26,SE,135,8.1,8.1,73,0.00,OVC,,0.00,WeatherDisplay:10.37,2013-04-23 14:27:00,
2013-04-23 10:32:00,49.8,41.9,30.26,SW,225,5.8,5.8,74,0.00,OVC,,0.00,WeatherDisplay:10.37,2013-04-23 14:32:00,
2013-04-23 10:37:00,50.2,41.1,30.26,NE,45,2.3,2.3,71,0.00,OVC,,0.00,WeatherDisplay:10.37,2013-04-23 14:37:00,
2013-04-23 10:42:00,50.2,41.1,30.26,SE,135,5.8,5.8,71,0.00,OVC,,0.00,WeatherDisplay:10.37,2013-04-23 14:42:00,
2013-04-23 10:47:00,49.8,41.2,30.26,South,180,4.6,4.6,72,0.00,OVC,,0.00,WeatherDisplay:10.37,2013-04-23 14:47:00,
2013-04-23 10:52:00,49.8,41.2,30.26,North,0,3.5,0.0,72,0.00,OVC,,0.00,WeatherDisplay:10.37,2013-04-23 14:52:00,
2013-04-23 10:57:00,50.4,41.7,30.26,NE,45,3.5,3.5,72,0.00,OVC,,0.00,WeatherDisplay:10.37,2013-04-23 14:57:00,
2013-04-23 11:02:00,51.4,42.3,30.26,South,180,2.3,2.3,71,0.00,OVC,,0.00,WeatherDisplay:10.37,2013-04-23 15:02:00,
2013-04-23 11:07:00,51.8,41.9,30.25,NE,45,3.5,3.5,69,0.00,OVC,,0.00,WeatherDisplay:10.37,2013-04-23 15:07:00,
2013-04-23 11:12:00,51.3,41.1,30.25,South,180,3.5,3.5,68,0.00,OVC,,0.00,WeatherDisplay:10.37,2013-04-23 15:12:00,
2013-04-23 11:17:00,51.4,41.2,30.25,SE,135,3.5,3.8,68,0.00,OVC,,0.00,WeatherDisplay:10.37,2013-04-23 15:17:00,
2013-04-23 11:22:00,51.1,41.3,30.26,NE,45,2.3,0.0,69,0.00,OVC,,0.00,WeatherDisplay:10.37,2013-04-23 15:22:00,
2013-04-23 11:27:00,51.3,41.8,30.25,SE,135,3.5,3.5,70,0.00,OVC,,0.00,WeatherDisplay:10.37,2013-04-23 15:27:00,
2013-04-23 11:32:00,51.4,41.2,30.25,South,180,3.5,3.5,68,0.00,OVC,,0.00,WeatherDisplay:10.37,2013-04-23 15:32:00,
2013-04-23 11:37:00,51.4,42.0,30.25,SE,135,3.5,3.5,70,0.00,OVC,,0.00,WeatherDisplay:10.37,2013-04-23 15:37:00,
2013-04-23 11:42:00,51.3,41.1,30.25,SE,135,5.8,5.8,68,0.00,OVC,,0.00,WeatherDisplay:10.37,2013-04-23 15:42:00,
2013-04-23 11:47:00,50.9,41.1,30.25,NE,45,3.5,3.5,69,0.00,OVC,,0.00,WeatherDisplay:10.37,2013-04-23 15:47:00,
2013-04-23 11:52:00,51.1,41.6,30.25,NW,315,3.5,0.0,70,0.00,OVC,,0.00,WeatherDisplay:10.37,2013-04-23 15:52:00,
2013-04-23 11:57:00,51.8,41.2,30.25,West,270,3.5,3.5,67,0.00,OVC,,0.00,WeatherDisplay:10.37,2013-04-23 15:57:00,
2013-04-23 12:02:00,51.8,41.2,30.25,SE,135,2.3,2.3,67,0.00,OVC,,0.00,WeatherDisplay:10.37,2013-04-23 16:02:00,
2013-04-23 12:07:00,51.8,40.8,30.25,SSE,158,3.5,3.5,66,0.00,OVC,,0.00,WeatherDisplay:10.37,2013-04-23 16:07:00,
2013-04-23 12:12:00,51.8,41.2,30.26,SE,135,2.3,2.3,67,0.00,OVC,,0.00,WeatherDisplay:10.37,2013-04-23 16:12:00,
2013-04-23 12:17:00,52.0,41.4,30.25,South,180,3.5,0.0,67,0.00,OVC,,0.00,WeatherDisplay:10.37,2013-04-23 16:17:00,
2013-04-23 12:22:00,52.5,41.9,30.25,South,180,4.6,4.6,67,0.00,OVC,,0.00,WeatherDisplay:10.37,2013-04-23 16:22:00,
2013-04-23 12:27:00,51.8,40.8,30.24,SE,135,3.5,3.5,66,0.00,OVC,,0.00,WeatherDisplay:10.37,2013-04-23 16:27:00,
2013-04-23 12:32:00,52.3,41.7,30.24,NE,45,8.1,8.1,67,0.00,OVC,,0.00,WeatherDisplay:10.37,2013-04-23 16:32:00,
2013-04-23 12:37:00,52.5,41.5,30.25,NE,45,3.5,3.5,66,0.00,OVC,,0.00,WeatherDisplay:10.37,2013-04-23 16:37:00,
2013-04-23 12:42:00,52.5,41.5,30.25,NE,45,3.5,3.5,66,0.00,OVC,,0.00,WeatherDisplay:10.37,2013-04-23 16:42:00,
2013-04-23 12:47:00,52.9,41.8,30.25,SE,135,2.3,2.3,66,0.00,OVC,,0.00,WeatherDisplay:10.37,2013-04-23 16:47:00,
2013-04-23 12:52:00,52.2,41.1,30.25,South,180,4.6,4.6,66,0.00,OVC,,0.00,WeatherDisplay:10.37,2013-04-23 16:52:00,
2013-04-23 12:57:00,52.5,41.9,30.26,North,0,2.3,2.3,67,0.00,OVC,,0.00,WeatherDisplay:10.37,2013-04-23 16:57:00,
2013-04-23 13:02:00,53.1,42.0,30.26,West,270,1.1,1.1,66,0.00,OVC,,0.00,WeatherDisplay:10.37,2013-04-23 17:02:00,
2013-04-23 13:07:00,53.2,41.8,30.25,NW,315,3.5,0.0,65,0.00,OVC,,0.00,WeatherDisplay:10.37,2013-04-23 17:07:00,
2013-04-23 13:12:00,54.1,43.0,30.24,NE,45,2.3,2.3,66,0.00,OVC,,0.00,WeatherDisplay:10.37,2013-04-23 17:12:00,
2013-04-23 13:17:00,55.0,42.7,30.24,West,270,1.1,0.0,63,0.00,OVC,,0.00,WeatherDisplay:10.37,2013-04-23 17:17:00,
2013-04-23 13:22:00,55.6,42.8,30.25,SSW,202,2.3,0.0,62,0.00,OVC,,0.00,WeatherDisplay:10.37,2013-04-23 17:22:00,
2013-04-23 13:27:00,55.2,41.1,30.23,SE,135,5.8,5.8,59,0.00,OVC,,0.00,WeatherDisplay:10.37,2013-04-23 17:27:00,
2013-04-23 13:32:00,54.5,41.7,30.23,South,180,5.8,5.8,62,0.00,OVC,,0.00,WeatherDisplay:10.37,2013-04-23 17:32:00,
2013-04-23 13:37:00,54.3,42.0,30.22,South,180,5.8,5.8,63,0.00,OVC,,0.00,WeatherDisplay:10.37,2013-04-23 17:37:00,
2013-04-23 13:42:00,54.1,42.6,30.22,South,180,5.8,5.8,65,0.00,OVC,,0.00,WeatherDisplay:10.37,2013-04-23 17:42:00,
2013-04-23 13:47:00,55.6,44.4,30.22,East,90,3.5,0.0,66,0.00,OVC,,0.00,WeatherDisplay:10.37,2013-04-23 17:47:00,
2013-04-23 13:52:00,56.7,42.9,30.24,SE,135,5.8,5.8,60,0.00,OVC,,0.00,WeatherDisplay:10.37,2013-04-23 17:52:00,
2013-04-23 13:57:00,54.7,41.9,30.23,South,180,5.8,5.8,62,0.00,OVC,,0.00,WeatherDisplay:10.37,2013-04-23 17:57:00,
2013-04-23 14:02:00,55.4,43.0,30.23,South,180,2.3,2.3,63,0.00,OVC,,0.00,WeatherDisplay:10.37,2013-04-23 18:02:00,
2013-04-23 14:07:00,58.3,44.9,30.23,North,0,3.5,3.5,61,0.00,OVC,,0.00,WeatherDisplay:10.37,2013-04-23 18:07:00,
2013-04-23 14:12:00,59.0,43.3,30.23,East,90,3.5,3.5,56,0.00,OVC,,0.00,WeatherDisplay:10.37,2013-04-23 18:12:00,
2013-04-23 14:17:00,59.4,43.7,30.23,North,0,3.5,3.5,56,0.00,BKN,,0.00,WeatherDisplay:10.37,2013-04-23 18:17:00,
2013-04-23 14:22:00,58.6,43.0,30.23,SSE,158,3.5,3.5,56,0.00,BKN,,0.00,WeatherDisplay:10.37,2013-04-23 18:22:00,
2013-04-23 14:27:00,58.8,44.5,30.21,SE,135,5.8,5.8,59,0.00,BKN,,0.00,WeatherDisplay:10.37,2013-04-23 18:27:00,
2013-04-23 14:32:00,59.4,43.7,30.21,SE,135,5.8,5.8,56,0.00,BKN,,0.00,WeatherDisplay:10.37,2013-04-23 18:32:00,
2013-04-23 14:37:00,57.9,42.3,30.21,NE,45,2.3,2.3,56,0.00,BKN,,0.00,WeatherDisplay:10.37,2013-04-23 18:37:00,
2013-04-23 14:42:00,59.7,44.9,30.20,South,180,3.5,3.5,58,0.00,BKN,,0.00,WeatherDisplay:10.37,2013-04-23 18:42:00,
2013-04-23 14:47:00,59.7,43.5,30.20,NE,45,5.8,5.8,55,0.00,BKN,,0.00,WeatherDisplay:10.37,2013-04-23 18:47:00,
2013-04-23 14:52:00,59.2,43.0,30.20,SE,135,4.6,4.6,55,0.00,BKN,,0.00,WeatherDisplay:10.37,2013-04-23 18:52:00,
2013-04-23 14:57:00,59.7,43.0,30.19,NW,315,3.5,3.5,54,0.00,BKN,,0.00,WeatherDisplay:10.37,2013-04-23 18:57:00,
2013-04-23 15:02:00,59.7,43.5,30.19,SE,135,10.4,10.4,55,0.00,SCT,,0.00,WeatherDisplay:10.37,2013-04-23 19:02:00,
2013-04-23 15:07:00,59.0,43.3,30.18,NE,45,8.1,8.1,56,0.00,SCT,,0.00,WeatherDisplay:10.37,2013-04-23 19:07:00,
2013-04-23 15:12:00,59.2,43.5,30.17,North,0,4.6,4.6,56,0.00,SCT,,0.00,WeatherDisplay:10.37,2013-04-23 19:12:00,
2013-04-23 15:17:00,59.7,44.0,30.18,East,90,6.9,6.9,56,0.00,SCT,,0.00,WeatherDisplay:10.37,2013-04-23 19:17:00,
2013-04-23 15:22:00,59.7,44.0,30.17,North,0,5.8,5.8,56,0.00,SCT,,0.00,WeatherDisplay:10.37,2013-04-23 19:22:00,
2013-04-23 15:27:00,60.6,44.4,30.17,East,90,9.2,9.2,55,0.00,SCT,,0.00,WeatherDisplay:10.37,2013-04-23 19:27:00,
2013-04-23 15:32:00,60.8,44.5,30.17,North,0,4.6,4.6,55,0.00,SCT,,0.00,WeatherDisplay:10.37,2013-04-23 19:32:00,
2013-04-23 15:37:00,61.2,44.4,30.17,SE,135,6.9,6.9,54,0.00,SCT,,0.00,WeatherDisplay:10.37,2013-04-23 19:37:00,
2013-04-23 15:42:00,62.1,44.2,30.17,NW,315,4.6,4.6,52,0.00,SCT,,0.00,WeatherDisplay:10.37,2013-04-23 19:42:00,
2013-04-23 15:47:00,62.8,44.4,30.17,SSE,158,3.5,3.5,51,0.00,SCT,,0.00,WeatherDisplay:10.37,2013-04-23 19:47:00,
2013-04-23 15:52:00,63.5,44.5,30.17,NE,45,4.6,4.6,50,0.00,SCT,,0.00,WeatherDisplay:10.37,2013-04-23 19:52:00,
2013-04-23 15:57:00,64.0,44.5,30.17,NW,315,3.5,0.0,49,0.00,SCT,,0.00,WeatherDisplay:10.37,2013-04-23 19:57:00,
2013-04-23 16:02:00,63.7,43.6,30.16,East,90,5.8,5.8,48,0.00,FEW,,0.00,WeatherDisplay:10.37,2013-04-23 20:02:00,
2013-04-23 16:07:00,63.5,44.5,30.16,NE,45,2.3,2.3,50,0.00,FEW,,0.00,WeatherDisplay:10.37,2013-04-23 20:07:00,
2013-04-23 16:12:00,63.1,44.2,30.15,East,90,3.5,3.5,50,0.00,FEW,,0.00,WeatherDisplay:10.37,2013-04-23 20:12:00,
2013-04-23 16:17:00,62.2,44.4,30.15,SE,135,5.8,5.8,52,0.00,FEW,,0.00,WeatherDisplay:10.37,2013-04-23 20:17:00,
2013-04-23 16:22:00,61.0,43.7,30.14,South,180,9.2,9.2,53,0.00,FEW,,0.00,WeatherDisplay:10.37,2013-04-23 20:22:00,
2013-04-23 16:27:00,61.0,43.7,30.14,SE,135,5.8,5.8,53,0.00,FEW,,0.00,WeatherDisplay:10.37,2013-04-23 20:27:00,
2013-04-23 16:32:00,61.9,45.0,30.13,NE,45,5.8,5.8,54,0.00,FEW,,0.00,WeatherDisplay:10.37,2013-04-23 20:32:00,
2013-04-23 16:37:00,62.2,44.9,30.13,East,90,4.6,4.6,53,0.00,FEW,,0.00,WeatherDisplay:10.37,2013-04-23 20:37:00,
2013-04-23 16:42:00,61.9,44.6,30.13,East,90,8.1,0.0,53,0.00,FEW,,0.00,WeatherDisplay:10.37,2013-04-23 20:42:00,
2013-04-23 16:47:00,61.0,43.7,30.13,NE,45,8.1,8.1,53,0.00,FEW,,0.00,WeatherDisplay:10.37,2013-04-23 20:47:00,
2013-04-23 16:52:00,61.2,43.9,30.13,SE,135,4.6,4.6,53,0.00,FEW,,0.00,WeatherDisplay:10.37,2013-04-23 20:52:00,
2013-04-23 16:57:00,60.3,44.5,30.12,SE,135,6.9,6.9,56,0.00,FEW,,0.00,WeatherDisplay:10.37,2013-04-23 20:57:00,
2013-04-23 17:02:00,60.4,44.2,30.12,East,90,9.2,9.2,55,0.00,CLR,,0.00,WeatherDisplay:10.37,2013-04-23 21:02:00,
2013-04-23 17:07:00,61.7,44.9,30.12,NE,45,4.6,4.6,54,0.00,CLR,,0.00,WeatherDisplay:10.37,2013-04-23 21:07:00,
2013-04-23 17:12:00,62.1,45.2,30.12,SE,135,5.8,5.8,54,0.00,CLR,,0.00,WeatherDisplay:10.37,2013-04-23 21:12:00,
2013-04-23 17:17:00,61.9,44.1,30.12,North,0,5.8,5.8,52,0.00,CLR,,0.00,WeatherDisplay:10.37,2013-04-23 21:17:00,
2013-04-23 17:22:00,62.1,44.7,30.12,SE,135,5.4,5.4,53,0.00,CLR,,0.00,WeatherDisplay:10.37,2013-04-23 21:22:00,
2013-04-23 17:27:00,61.5,44.7,30.11,North,0,3.5,0.0,54,0.00,CLR,,0.00,WeatherDisplay:10.37,2013-04-23 21:27:00,
2013-04-23 17:32:00,61.3,44.1,30.11,North,0,6.9,6.9,53,0.00,CLR,,0.00,WeatherDisplay:10.37,2013-04-23 21:32:00,
2013-04-23 17:37:00,61.2,44.4,30.12,NW,315,1.1,1.1,54,0.00,CLR,,0.00,WeatherDisplay:10.37,2013-04-23 21:37:00,
2013-04-23 17:42:00,61.5,44.2,30.12,SW,225,3.5,3.5,53,0.00,CLR,,0.00,WeatherDisplay:10.37,2013-04-23 21:42:00,
2013-04-23 17:47:00,61.0,44.2,30.12,SE,135,3.5,3.5,54,0.00,CLR,,0.00,WeatherDisplay:10.37,2013-04-23 21:47:00,
2013-04-23 17:52:00,61.5,44.2,30.13,NW,315,1.6,0.0,53,0.00,CLR,,0.00,WeatherDisplay:10.37,2013-04-23 21:52:00,
2013-04-23 17:57:00,61.9,43.5,30.13,West,270,2.3,2.3,51,0.00,CLR,,0.00,WeatherDisplay:10.37,2013-04-23 21:57:00,
2013-04-23 18:02:00,61.5,43.7,30.13,SE,135,5.8,5.8,52,0.00,CLR,,0.00,WeatherDisplay:10.37,2013-04-23 22:02:00,
2013-04-23 18:07:00,61.5,44.2,30.13,SE,135,3.5,3.5,53,0.00,CLR,,0.00,WeatherDisplay:10.37,2013-04-23 22:07:00,
2013-04-23 18:12:00,61.7,43.9,30.12,East,90,5.8,5.8,52,0.00,CLR,,0.00,WeatherDisplay:10.37,2013-04-23 22:12:00,
2013-04-23 18:17:00,60.6,43.9,30.12,South,180,8.1,8.1,54,0.00,CLR,,0.00,WeatherDisplay:10.37,2013-04-23 22:17:00,
2013-04-23 18:22:00,60.6,43.9,30.12,SW,225,3.5,3.5,54,0.00,CLR,,0.00,WeatherDisplay:10.37,2013-04-23 22:22:00,
2013-04-23 18:27:00,60.6,43.9,30.12,NW,315,2.3,2.3,54,0.00,CLR,,0.00,WeatherDisplay:10.37,2013-04-23 22:27:00,
2013-04-23 18:32:00,61.2,43.9,30.12,NE,45,3.5,3.5,53,0.00,CLR,,0.00,WeatherDisplay:10.37,2013-04-23 22:32:00,
2013-04-23 18:37:00,60.4,43.7,30.12,SE,135,4.6,4.6,54,0.00,CLR,,0.00,WeatherDisplay:10.37,2013-04-23 22:37:00,
2013-04-23 18:42:00,60.3,45.0,30.12,South,180,2.3,2.3,57,0.00,CLR,,0.00,WeatherDisplay:10.37,2013-04-23 22:42:00,
2013-04-23 18:47:00,59.9,44.2,30.11,North,0,2.3,2.3,56,0.00,CLR,,0.00,WeatherDisplay:10.37,2013-04-23 22:47:00,
2013-04-23 18:52:00,59.0,44.2,30.11,SSE,158,3.5,3.5,58,0.00,CLR,,0.00,WeatherDisplay:10.37,2013-04-23 22:52:00,
2013-04-23 18:57:00,58.5,43.7,30.11,SE,135,2.3,2.3,58,0.00,CLR,,0.00,WeatherDisplay:10.37,2013-04-23 22:57:00,
2013-04-23 19:02:00,58.1,44.3,30.11,South,180,1.1,1.1,60,0.00,CLR,,0.00,WeatherDisplay:10.37,2013-04-23 23:02:00,
2013-04-23 19:07:00,57.7,44.4,30.10,South,180,2.3,2.3,61,0.00,CLR,,0.00,WeatherDisplay:10.37,2013-04-23 23:07:00,
2013-04-23 19:12:00,57.2,44.3,30.11,East,90,3.5,0.0,62,0.00,CLR,,0.00,WeatherDisplay:10.37,2013-04-23 23:12:00,
2013-04-23 19:17:00,56.7,44.6,30.10,SE,135,1.1,0.0,64,0.00,CLR,,0.00,WeatherDisplay:10.37,2013-04-23 23:17:00,
2013-04-23 19:22:00,56.1,44.5,30.10,SE,135,2.3,2.3,65,0.00,CLR,,0.00,WeatherDisplay:10.37,2013-04-23 23:22:00,
2013-04-23 19:27:00,55.8,44.6,30.10,South,180,2.3,0.0,66,0.00,CLR,,0.00,WeatherDisplay:10.37,2013-04-23 23:27:00,
2013-04-23 19:32:00,55.4,44.2,30.11,South,180,1.1,0.0,66,0.00,CLR,,0.00,WeatherDisplay:10.37,2013-04-23 23:32:00,
2013-04-23 19:37:00,55.0,43.9,30.11,NW,315,1.1,0.0,66,0.00,CLR,,0.00,WeatherDisplay:10.37,2013-04-23 23:37:00,
2013-04-23 19:42:00,54.7,43.9,30.11,NW,315,0.0,0.0,67,0.00,CLR,,0.00,WeatherDisplay:10.37,2013-04-23 23:42:00,
2013-04-23 19:47:00,54.3,43.6,30.11,South,180,1.1,0.0,67,0.00,CLR,,0.00,WeatherDisplay:10.37,2013-04-23 23:47:00,
2013-04-23 19:52:00,54.0,44.0,30.11,SE,135,1.1,1.1,69,0.00,CLR,,0.00,WeatherDisplay:10.37,2013-04-23 23:52:00,
2013-04-23 19:57:00,53.8,43.8,30.11,SE,135,1.1,0.0,69,0.00,CLR,,0.00,WeatherDisplay:10.37,2013-04-23 23:57:00,
2013-04-23 20:02:00,53.6,44.0,30.11,SE,135,1.1,0.0,70,0.00,CLR,,0.00,WeatherDisplay:10.37,2013-04-24 00:02:00,
2013-04-23 20:07:00,53.2,43.3,30.12,SE,135,1.1,0.0,69,0.00,CLR,,0.00,WeatherDisplay:10.37,2013-04-24 00:07:00,
2013-04-23 20:12:00,52.9,43.0,30.13,SE,135,0.0,0.0,69,0.00,CLR,,0.00,WeatherDisplay:10.37,2013-04-24 00:12:00,
2013-04-23 20:17:00,52.7,43.2,30.13,North,0,1.1,0.0,70,0.00,CLR,,0.00,WeatherDisplay:10.37,2013-04-24 00:17:00,
2013-04-23 20:22:00,52.5,43.4,30.12,SW,225,0.0,0.0,71,0.00,CLR,,0.00,WeatherDisplay:10.37,2013-04-24 00:22:00,
2013-04-23 20:27:00,52.2,43.4,30.13,SW,225,0.0,0.0,72,0.00,CLR,,0.00,WeatherDisplay:10.37,2013-04-24 00:27:00,
2013-04-23 20:32:00,51.8,43.1,30.13,SW,225,0.0,0.0,72,0.00,CLR,,0.00,WeatherDisplay:10.37,2013-04-24 00:32:00,
2013-04-23 20:37:00,51.4,42.7,30.13,SW,225,0.0,0.0,72,0.00,CLR,,0.00,WeatherDisplay:10.37,2013-04-24 00:37:00,
2013-04-23 20:42:00,51.1,42.7,30.13,SW,225,0.0,0.0,73,0.00,CLR,,0.00,WeatherDisplay:10.37,2013-04-24 00:42:00,
2013-04-23 20:47:00,51.1,43.4,30.13,SE,135,1.1,0.0,75,0.00,CLR,,0.00,WeatherDisplay:10.37,2013-04-24 00:47:00,
2013-04-23 20:53:00,50.9,43.3,30.13,SE,135,0.0,0.0,75,0.00,CLR,,0.00,WeatherDisplay:10.37,2013-04-24 00:53:00,
2013-04-23 20:58:00,50.9,43.6,30.12,SE,135,1.1,0.0,76,0.00,CLR,,0.00,WeatherDisplay:10.37,2013-04-24 00:58:00,
2013-04-23 21:03:00,50.9,43.6,30.12,SE,135,1.1,0.0,76,0.00,CLR,,0.00,WeatherDisplay:10.37,2013-04-24 01:03:00,
2013-04-23 21:08:00,50.7,43.8,30.12,SE,135,1.1,1.1,77,0.00,CLR,,0.00,WeatherDisplay:10.37,2013-04-24 01:08:00,
2013-04-23 21:13:00,50.7,43.8,30.12,SE,135,1.1,1.1,77,0.00,CLR,,0.00,WeatherDisplay:10.37,2013-04-24 01:13:00,
2013-04-23 21:18:00,50.7,43.8,30.12,SE,135,1.1,0.0,77,0.00,CLR,,0.00,WeatherDisplay:10.37,2013-04-24 01:18:00,
2013-04-23 21:23:00,50.5,43.9,30.11,SE,135,2.3,2.3,78,0.00,CLR,,0.00,WeatherDisplay:10.37,2013-04-24 01:23:00,
2013-04-23 21:28:00,50.2,43.6,30.11,East,90,1.1,0.0,78,0.00,CLR,,0.00,WeatherDisplay:10.37,2013-04-24 01:28:00,
2013-04-23 21:33:00,50.2,43.6,30.12,SE,135,1.6,1.6,78,0.00,CLR,,0.00,WeatherDisplay:10.37,2013-04-24 01:33:00,
2013-04-23 21:38:00,50.2,43.6,30.11,SE,135,0.0,0.0,78,0.00,CLR,,0.00,WeatherDisplay:10.37,2013-04-24 01:38:00,
2013-04-23 21:43:00,50.2,43.6,30.11,NW,315,1.1,0.0,78,0.00,CLR,,0.00,WeatherDisplay:10.37,2013-04-24 01:43:00,
2013-04-23 21:48:00,49.8,43.2,30.11,NW,315,0.0,0.0,78,0.00,CLR,,0.00,WeatherDisplay:10.37,2013-04-24 01:48:00,
2013-04-23 21:53:00,49.1,42.9,30.11,NW,315,0.0,0.0,79,0.00,CLR,,0.00,WeatherDisplay:10.37,2013-04-24 01:53:00,
2013-04-23 21:58:00,48.6,42.7,30.11,NW,315,0.0,0.0,80,0.00,CLR,,0.00,WeatherDisplay:10.37,2013-04-24 01:58:00,
2013-04-23 22:03:00,47.8,42.0,30.11,NW,315,0.0,0.0,80,0.00,CLR,,0.00,WeatherDisplay:10.37,2013-04-24 02:03:00,
2013-04-23 22:08:00,47.5,42.3,30.11,South,180,0.0,0.0,82,0.00,CLR,,0.00,WeatherDisplay:10.37,2013-04-24 02:08:00,
2013-04-23 22:13:00,47.5,42.9,30.11,South,180,1.1,0.0,84,0.00,CLR,,0.00,WeatherDisplay:10.37,2013-04-24 02:13:00,
2013-04-23 22:18:00,47.5,43.2,30.11,SE,135,0.0,0.0,85,0.00,CLR,,0.00,WeatherDisplay:10.37,2013-04-24 02:18:00,
2013-04-23 22:23:00,47.5,42.9,30.11,SE,135,0.0,0.0,84,0.00,CLR,,0.00,WeatherDisplay:10.37,2013-04-24 02:23:00,
2013-04-23 22:28:00,47.1,42.5,30.10,NE,45,0.0,0.0,84,0.00,CLR,,0.00,WeatherDisplay:10.37,2013-04-24 02:28:00,
2013-04-23 22:33:00,47.3,43.0,30.10,NE,45,1.6,0.0,85,0.00,CLR,,0.00,WeatherDisplay:10.37,2013-04-24 02:33:00,
2013-04-23 22:38:00,47.1,42.5,30.10,NE,45,0.0,0.0,84,0.00,CLR,,0.00,WeatherDisplay:10.37,2013-04-24 02:38:00,
2013-04-23 22:43:00,47.1,42.5,30.10,NE,45,0.0,0.0,84,0.00,CLR,,0.00,WeatherDisplay:10.37,2013-04-24 02:43:00,
2013-04-23 22:48:00,46.8,42.5,30.10,NE,45,0.0,0.0,85,0.00,CLR,,0.00,WeatherDisplay:10.37,2013-04-24 02:48:00,
2013-04-23 22:53:00,46.4,42.1,30.10,NW,315,0.0,0.0,85,0.00,CLR,,0.00,WeatherDisplay:10.37,2013-04-24 02:53:00,
2013-04-23 22:59:00,46.0,42.1,30.09,NW,315,0.0,0.0,86,0.00,CLR,,0.00,WeatherDisplay:10.37,2013-04-24 02:59:00,
2013-04-23 23:04:00,45.7,41.7,30.09,NW,315,0.0,0.0,86,0.00,CLR,,0.00,WeatherDisplay:10.37,2013-04-24 03:04:00,
2013-04-23 23:09:00,45.5,41.9,30.08,NE,45,0.0,0.0,87,0.00,CLR,,0.00,WeatherDisplay:10.37,2013-04-24 03:09:00,
2013-04-23 23:14:00,45.5,42.2,30.08,SE,135,0.0,0.0,88,0.00,CLR,,0.00,WeatherDisplay:10.37,2013-04-24 03:14:00,
2013-04-23 23:19:00,45.7,42.6,30.08,SE,135,0.0,0.0,89,0.00,CLR,,0.00,WeatherDisplay:10.37,2013-04-24 03:19:00,
2013-04-23 23:24:00,45.7,42.6,30.08,SE,135,0.0,0.0,89,0.00,CLR,,0.00,WeatherDisplay:10.37,2013-04-24 03:24:00,
2013-04-23 23:30:00,45.5,42.4,30.08,SE,135,0.0,0.0,89,0.00,CLR,,0.00,WeatherDisplay:10.37,2013-04-24 03:30:00,
2013-04-23 23:35:00,45.9,42.8,30.08,SE,135,1.1,1.1,89,0.00,CLR,,0.00,WeatherDisplay:10.37,2013-04-24 03:35:00,
2013-04-23 23:40:00,46.2,43.4,30.08,SE,135,1.1,1.1,90,0.00,CLR,,0.00,WeatherDisplay:10.37,2013-04-24 03:40:00,
2013-04-23 23:46:00,46.2,43.2,30.08,West,270,1.1,0.0,89,0.00,CLR,,0.00,WeatherDisplay:10.37,2013-04-24 03:46:00,
2013-04-23 23:51:00,45.7,42.3,30.08,NW,315,1.1,0.0,88,0.00,CLR,,0.00,WeatherDisplay:10.37,2013-04-24 03:51:00,
2013-04-23 23:56:00,45.3,42.3,30.08,SE,135,2.3,2.3,89,0.00,CLR,,0.00,WeatherDisplay:10.37,2013-04-24 03:56:00,